High Level Airport
CYOJ : now visible

Airfield :











YOU CAN JOIN US ON...

 
LOGIN :

Register | Disclaimer

   EN    FR    IT 

 









Legend :    VFR   Marginal VFR   IFR   Intensive IFR   Very Intensive IFR
Visi :
Ceiling :
>= 8 km
>= 3000ft
5 to 8 km
1000 to 3000 ft
1500m to 5 km
500 to 1000 ft
800 to 1500m
200 to 500 ft
< 800m
< 200 ft
Symbols :   Thunderstorms  Fog  Heavy snow  Heavy precipitations  Wind > 20 kt






- Airport Elevation : 1110 ft
- IATA code : YOJ


CYOJ - High Level

CURRENT METAR :
  • 260300Z 04003KT 010V100 10SM -SHRA BKN065TCU BKN095 13/09 A2966 RMK TCU6AC1 AC TR SLP056 DENSITY ALT 1500FT

EXPIRED METARs :
  • 260227Z 07007KT 040V100 15SM -SHRA SCT060TCU BKN150 14/09 A2966 RMK TCU4AC2 SLP057 DENSITY ALT 1600FT
  • 260200Z 09006KT 050V120 15SM FEW020 SCT050TCU BKN150 14/09 A2966 RMK CF1TCU3AC2 CF TR SLP056 DENSITY ALT 1600FT
  • 260100Z 09008KT 15SM SCT048TCU BKN150 16/11 A2966 RMK TCU3AC2 SLP055 DENSITY ALT 1900FT

TAF TAF CYOJ
Valid from the 26 at 01:00 until the 26 at 13:00 UTC


260038Z 2601/2613 33005KT P6SM SCT040 BKN090 OVC250
TEMPO 2601/2605 P6SM -SHRA VCTS BKN040CB OVC090
FM260500 VRB03KT P6SM -RA SCT015 BKN040 OVC090
TEMPO 2605/2613 5SM SHRA BR FEW006 BKN015 OVC030 RMK NXT FCST BY 260700Z
CZEG FIR / North America



MET'MAP, your aeronautical weather chart ! - Copyright ORBIFLY December 2007 - Disclaimer

ORBIFLY MET'MAP TEAM :

Programming & Development : Alexandra Zaïnal
Concept & original design : Baudouin d'Aumeries
Assistance for programming : Marc-Olivier Méhu
Technical & hardware support : Manuel Goepfert

Contact : metmap@orbifly.com




SOURCES & CREDITS :

   NOAA       Earth
Advisory